createdAt,value
2023-05-16T00:01:09.383Z,18.64
2023-05-16T00:03:38.392Z,18.62
2023-05-16T00:06:06.108Z,18.59
2023-05-16T00:08:33.597Z,18.56
2023-05-16T00:11:01.632Z,18.54
2023-05-16T00:13:29.809Z,18.53
2023-05-16T00:15:59.493Z,18.54
2023-05-16T00:18:27.201Z,18.53
2023-05-16T00:20:55.591Z,18.52
2023-05-16T00:23:23.082Z,18.48
2023-05-16T00:25:50.873Z,18.44
2023-05-16T00:28:18.854Z,18.42
2023-05-16T00:30:46.397Z,18.41
2023-05-16T00:33:14.073Z,18.41
2023-05-16T00:35:41.657Z,18.40
2023-05-16T00:38:09.374Z,18.41
2023-05-16T00:40:37.165Z,18.39
2023-05-16T00:43:04.992Z,18.40
2023-05-16T00:45:32.478Z,18.40
2023-05-16T00:48:00.032Z,18.42
2023-05-16T00:50:27.821Z,18.39
2023-05-16T00:52:55.688Z,18.40
2023-05-16T00:55:23.226Z,18.40
2023-05-16T00:57:50.838Z,18.39
2023-05-16T01:00:20.009Z,18.39
2023-05-16T01:02:48.510Z,18.37
2023-05-16T01:05:16.239Z,18.36
2023-05-16T01:07:43.776Z,18.36
2023-05-16T01:10:11.559Z,18.36
2023-05-16T01:12:48.730Z,18.36
2023-05-16T01:15:21.778Z,18.33
2023-05-16T01:18:11.365Z,18.31
2023-05-16T01:20:52.518Z,18.30
2023-05-16T01:23:33.554Z,18.27
2023-05-16T01:26:19.760Z,18.23
2023-05-16T01:28:47.671Z,18.23
2023-05-16T01:31:15.238Z,18.24
2023-05-16T01:33:42.944Z,18.24
2023-05-16T01:36:23.923Z,18.25
2023-05-16T01:39:44.718Z,18.16
2023-05-16T01:42:14.198Z,18.15
2023-05-16T01:44:41.840Z,18.16
2023-05-16T01:47:13.483Z,18.15
2023-05-16T01:49:45.471Z,18.13
2023-05-16T01:52:16.489Z,18.11
2023-05-16T01:54:45.533Z,18.06
2023-05-16T01:57:13.205Z,18.08
2023-05-16T01:59:41.223Z,18.09
2023-05-16T02:02:09.176Z,18.10
2023-05-16T02:04:38.129Z,18.08
2023-05-16T02:07:06.554Z,18.07
2023-05-16T02:09:34.606Z,18.06
2023-05-16T02:12:02.487Z,18.05
2023-05-16T02:14:31.078Z,18.07
2023-05-16T02:16:58.824Z,18.06
2023-05-16T02:19:27.228Z,18.05
2023-05-16T02:21:54.752Z,18.04
2023-05-16T02:24:22.539Z,18.04
2023-05-16T02:26:49.966Z,18.04
2023-05-16T02:29:18.377Z,17.99
2023-05-16T02:31:47.249Z,17.96
2023-05-16T02:34:15.523Z,17.94
2023-05-16T02:36:43.229Z,17.94
2023-05-16T02:39:11.370Z,17.96
2023-05-16T02:41:38.859Z,17.95
2023-05-16T02:44:06.331Z,17.98
2023-05-16T02:46:34.654Z,17.95
2023-05-16T02:49:04.878Z,17.95
2023-05-16T02:51:32.438Z,17.92
2023-05-16T02:54:01.198Z,17.90
2023-05-16T02:56:28.794Z,17.90
2023-05-16T02:58:56.571Z,17.91
2023-05-16T03:01:24.307Z,17.92
2023-05-16T03:03:52.154Z,17.94
2023-05-16T03:06:19.747Z,17.93
2023-05-16T03:08:47.503Z,17.92
2023-05-16T03:11:22.870Z,17.92
2023-05-16T03:13:50.915Z,17.95
2023-05-16T03:16:18.558Z,17.96
2023-05-16T03:18:46.455Z,17.98
2023-05-16T03:21:14.093Z,17.98
2023-05-16T03:23:41.772Z,17.96
2023-05-16T03:26:09.431Z,17.98
2023-05-16T03:28:37.518Z,17.98
2023-05-16T03:31:05.312Z,17.99
2023-05-16T03:33:32.943Z,18.03
2023-05-16T03:36:00.507Z,18.02
2023-05-16T03:38:28.169Z,18.04
2023-05-16T03:40:56.310Z,18.03
2023-05-16T03:43:24.028Z,18.05
2023-05-16T03:45:51.601Z,18.06
2023-05-16T03:48:19.718Z,18.10
2023-05-16T03:50:47.914Z,18.12
2023-05-16T03:53:15.475Z,18.15
2023-05-16T03:55:43.457Z,18.19
2023-05-16T03:58:11.585Z,18.22
2023-05-16T04:00:39.262Z,18.27
2023-05-16T04:03:06.805Z,18.29
2023-05-16T04:05:34.396Z,18.32
2023-05-16T04:08:02.011Z,18.37
2023-05-16T04:10:29.686Z,18.40
2023-05-16T04:12:57.234Z,18.44
2023-05-16T04:15:25.014Z,18.45
2023-05-16T04:17:52.723Z,18.50
2023-05-16T04:20:20.333Z,18.54
2023-05-16T04:22:48.142Z,18.58
2023-05-16T04:25:15.789Z,18.62
2023-05-16T04:27:43.680Z,18.65
2023-05-16T04:30:12.126Z,18.70
2023-05-16T04:32:39.971Z,18.75
2023-05-16T04:35:09.271Z,18.80
2023-05-16T04:37:38.110Z,18.88
2023-05-16T04:40:07.852Z,18.94
2023-05-16T04:42:35.639Z,19.00
2023-05-16T04:45:04.183Z,19.03
2023-05-16T04:47:32.363Z,19.09
2023-05-16T04:49:59.818Z,19.19
2023-05-16T04:52:27.307Z,19.26
2023-05-16T04:54:54.883Z,19.34
2023-05-16T04:57:22.774Z,19.42
2023-05-16T04:59:50.295Z,19.48
2023-05-16T05:02:17.854Z,19.55
2023-05-16T05:04:45.626Z,19.55
2023-05-16T05:07:14.592Z,19.57
2023-05-16T05:09:43.147Z,19.64
2023-05-16T05:12:11.375Z,19.68
2023-05-16T05:14:38.906Z,19.69
2023-05-16T05:17:06.769Z,19.77
2023-05-16T05:19:34.535Z,19.83
2023-05-16T05:22:02.128Z,19.89
2023-05-16T05:24:29.867Z,19.98
2023-05-16T05:26:57.403Z,20.02
2023-05-16T05:29:24.950Z,20.08
2023-05-16T05:31:52.655Z,20.09
2023-05-16T05:34:20.489Z,20.12
2023-05-16T05:36:48.062Z,20.12
2023-05-16T05:39:15.735Z,20.14
2023-05-16T05:41:43.365Z,20.18
2023-05-16T05:44:10.791Z,20.21
2023-05-16T05:46:38.974Z,20.27
2023-05-16T05:49:06.482Z,20.27
2023-05-16T05:51:34.871Z,20.28
2023-05-16T05:54:03.184Z,20.35
2023-05-16T05:56:30.973Z,20.38
2023-05-16T05:58:58.633Z,20.42
2023-05-16T06:01:26.611Z,20.47
2023-05-16T06:03:54.118Z,20.57
2023-05-16T06:06:21.665Z,20.65
2023-05-16T06:08:49.287Z,20.68
2023-05-16T06:11:16.800Z,20.75
2023-05-16T06:13:44.381Z,20.81
2023-05-16T06:16:11.953Z,20.91
2023-05-16T06:18:39.574Z,20.94
2023-05-16T06:21:07.165Z,20.98
2023-05-16T06:23:35.937Z,21.09
2023-05-16T06:26:03.832Z,21.19
2023-05-16T06:28:31.870Z,21.26
2023-05-16T06:30:59.358Z,21.34
2023-05-16T06:33:27.617Z,21.39
2023-05-16T06:35:55.188Z,21.48
2023-05-16T06:38:22.801Z,21.44
2023-05-16T06:40:50.289Z,21.48
2023-05-16T06:43:18.020Z,21.59
2023-05-16T06:45:46.858Z,21.71
2023-05-16T06:48:15.570Z,21.81
2023-05-16T06:50:43.192Z,21.90
2023-05-16T06:53:12.187Z,21.94
2023-05-16T06:55:40.161Z,21.99
2023-05-16T06:58:07.664Z,22.08
2023-05-16T07:00:35.944Z,22.13
2023-05-16T07:03:04.041Z,22.17
2023-05-16T07:05:32.174Z,22.24
2023-05-16T07:08:00.009Z,22.32
2023-05-16T07:10:27.724Z,22.40
2023-05-16T07:12:55.858Z,22.51
2023-05-16T07:15:23.544Z,22.59
2023-05-16T07:17:51.118Z,22.67
2023-05-16T07:20:18.784Z,22.75
2023-05-16T07:22:46.351Z,22.79
2023-05-16T07:25:15.246Z,22.89
2023-05-16T07:27:44.859Z,23.00
2023-05-16T07:30:13.349Z,23.11
2023-05-16T07:32:41.450Z,23.20
2023-05-16T07:35:10.092Z,23.23
2023-05-16T07:37:42.604Z,23.28
2023-05-16T07:40:13.324Z,23.31
2023-05-16T07:42:40.957Z,23.36
2023-05-16T07:45:09.043Z,23.40
2023-05-16T07:47:37.091Z,23.44
2023-05-16T07:50:05.171Z,23.49
2023-05-16T07:52:33.056Z,23.55
2023-05-16T07:55:00.692Z,23.62
2023-05-16T07:57:28.548Z,23.70
2023-05-16T07:59:56.176Z,23.76
2023-05-16T08:02:26.455Z,23.83
2023-05-16T08:04:55.150Z,23.87
2023-05-16T08:07:23.102Z,23.94
2023-05-16T08:09:50.617Z,24.04
2023-05-16T08:12:18.338Z,24.09
2023-05-16T08:14:45.967Z,24.20
2023-05-16T08:17:14.793Z,24.27
2023-05-16T08:19:42.682Z,24.30
2023-05-16T08:22:10.200Z,24.35
2023-05-16T08:24:38.081Z,24.41
2023-05-16T08:27:06.075Z,24.48
2023-05-16T08:29:34.494Z,24.53
2023-05-16T08:32:02.180Z,24.58
2023-05-16T08:34:33.369Z,24.69
2023-05-16T08:37:01.605Z,24.76
2023-05-16T08:39:30.837Z,24.89
2023-05-16T08:41:59.039Z,24.97
2023-05-16T08:44:28.587Z,25.00
2023-05-16T08:46:56.317Z,24.99
2023-05-16T08:49:24.091Z,25.05
2023-05-16T08:51:51.987Z,25.11
2023-05-16T08:54:19.864Z,25.17
2023-05-16T08:56:48.328Z,25.26
2023-05-16T08:59:15.811Z,25.34
2023-05-16T09:01:43.359Z,25.40
2023-05-16T09:04:11.078Z,25.43
2023-05-16T09:06:38.607Z,25.46
2023-05-16T09:09:08.164Z,25.48
2023-05-16T09:11:37.115Z,25.55
2023-05-16T09:14:05.831Z,25.50
2023-05-16T09:16:33.861Z,25.63
2023-05-16T09:19:01.936Z,25.71
2023-05-16T09:21:33.470Z,25.84
2023-05-16T09:24:04.986Z,25.95
2023-05-16T09:26:33.850Z,26.01
2023-05-16T09:29:02.364Z,26.04
2023-05-16T09:31:38.056Z,26.09
2023-05-16T09:34:09.353Z,26.13
2023-05-16T09:36:37.746Z,26.18
2023-05-16T09:39:08.819Z,26.21
2023-05-16T09:41:36.698Z,26.27
2023-05-16T09:44:06.508Z,26.34
2023-05-16T09:46:37.744Z,26.40
2023-05-16T09:49:05.406Z,26.33
2023-05-16T09:51:33.603Z,26.33
2023-05-16T09:54:01.266Z,26.34
2023-05-16T09:56:30.226Z,26.30
2023-05-16T09:58:57.816Z,26.20
2023-05-16T10:01:25.397Z,26.21
2023-05-16T10:03:53.195Z,26.25
2023-05-16T10:06:20.903Z,26.27
2023-05-16T10:08:48.551Z,26.17
2023-05-16T10:11:16.419Z,26.15
2023-05-16T10:13:45.052Z,26.16
2023-05-16T10:16:12.773Z,26.18
2023-05-16T10:18:40.612Z,26.20
2023-05-16T10:21:11.742Z,26.23
2023-05-16T10:23:43.625Z,26.31
2023-05-16T10:26:14.195Z,26.35
2023-05-16T10:28:42.170Z,26.36
2023-05-16T10:31:11.402Z,26.35
2023-05-16T10:33:40.247Z,26.35
2023-05-16T10:36:11.200Z,26.34
2023-05-16T10:38:39.529Z,26.36
2023-05-16T10:41:07.715Z,26.31
2023-05-16T10:43:35.432Z,26.23
2023-05-16T10:46:05.375Z,26.24
2023-05-16T10:48:35.341Z,26.26
2023-05-16T10:51:03.416Z,26.26
2023-05-16T10:53:35.263Z,26.27
2023-05-16T10:56:03.320Z,26.26
2023-05-16T10:58:33.973Z,26.23
2023-05-16T11:01:35.860Z,26.09
2023-05-16T11:04:10.523Z,25.98
2023-05-16T11:06:41.104Z,25.92
2023-05-16T11:09:19.834Z,25.87
2023-05-16T11:11:53.654Z,25.84
2023-05-16T11:14:42.576Z,25.72
2023-05-16T11:17:23.280Z,25.65
2023-05-16T11:19:59.631Z,25.55
2023-05-16T11:22:31.125Z,25.53
2023-05-16T11:25:03.372Z,25.45
2023-05-16T11:27:38.856Z,25.39
2023-05-16T11:30:06.583Z,25.35
2023-05-16T11:32:35.598Z,25.30
2023-05-16T11:35:04.252Z,25.23
2023-05-16T11:37:32.047Z,25.16
2023-05-16T11:40:04.414Z,25.13
2023-05-16T11:42:41.546Z,25.04
2023-05-16T11:45:10.530Z,24.99
2023-05-16T11:47:39.011Z,24.96
2023-05-16T11:50:27.462Z,24.94
2023-05-16T11:52:57.569Z,24.88
2023-05-16T11:55:41.432Z,24.87
2023-05-16T11:58:10.187Z,24.81
2023-05-16T12:00:37.803Z,24.71
2023-05-16T12:03:06.096Z,24.68
2023-05-16T12:05:35.017Z,24.59
2023-05-16T12:08:04.965Z,24.60
2023-05-16T12:10:35.794Z,24.56
2023-05-16T12:13:03.751Z,24.57
2023-05-16T12:15:31.843Z,24.58
2023-05-16T12:17:59.732Z,24.57
2023-05-16T12:20:27.601Z,24.52
2023-05-16T12:22:57.601Z,24.52
2023-05-16T12:25:29.549Z,24.46
2023-05-16T12:28:01.315Z,24.39
2023-05-16T12:30:31.312Z,24.39
2023-05-16T12:33:00.160Z,24.41
2023-05-16T12:35:33.429Z,24.40
2023-05-16T12:38:05.841Z,24.29
2023-05-16T12:40:33.424Z,24.26
2023-05-16T12:43:01.266Z,24.22
2023-05-16T12:45:29.334Z,24.21
2023-05-16T12:47:56.972Z,24.20
2023-05-16T12:50:29.534Z,24.19
2023-05-16T12:52:59.635Z,24.21
2023-05-16T12:55:27.426Z,24.22
2023-05-16T12:57:55.664Z,24.20
2023-05-16T13:00:23.580Z,24.18
2023-05-16T13:02:52.371Z,24.17
2023-05-16T13:05:22.166Z,24.15
2023-05-16T13:07:51.642Z,24.13
2023-05-16T13:10:19.313Z,24.12
2023-05-16T13:12:47.508Z,24.14
2023-05-16T13:15:15.302Z,24.14
2023-05-16T13:17:46.360Z,24.11
2023-05-16T13:20:15.358Z,24.06
2023-05-16T13:22:43.706Z,24.05
2023-05-16T13:25:12.302Z,23.99
2023-05-16T13:27:39.932Z,23.93
2023-05-16T13:30:07.956Z,23.92
2023-05-16T13:32:36.175Z,23.87
2023-05-16T13:35:04.264Z,23.85
2023-05-16T13:37:32.261Z,23.83
2023-05-16T13:39:59.985Z,23.79
2023-05-16T13:42:27.695Z,23.75
2023-05-16T13:44:55.244Z,23.73
2023-05-16T13:47:22.776Z,23.71
2023-05-16T13:49:50.808Z,23.70
2023-05-16T13:52:18.472Z,23.69
2023-05-16T13:54:46.117Z,23.65
2023-05-16T13:57:13.666Z,23.64
2023-05-16T14:02:11.710Z,23.66
2023-05-16T14:04:39.177Z,23.64
2023-05-16T14:07:07.264Z,23.63
2023-05-16T14:09:35.527Z,23.66
2023-05-16T14:12:03.134Z,23.63
2023-05-16T14:14:30.815Z,23.62
2023-05-16T14:16:58.458Z,23.64
2023-05-16T14:19:26.174Z,23.63
2023-05-16T14:21:53.771Z,23.60
2023-05-16T14:24:21.450Z,23.57
2023-05-16T14:26:49.306Z,23.57
2023-05-16T14:29:17.146Z,23.59
2023-05-16T14:31:44.937Z,23.57
2023-05-16T14:34:12.599Z,23.56
2023-05-16T14:36:40.120Z,23.55
2023-05-16T14:39:08.706Z,23.48
2023-05-16T14:41:36.547Z,23.42
2023-05-16T14:44:04.335Z,23.40
2023-05-16T14:46:32.031Z,23.38
2023-05-16T14:48:59.760Z,23.37
2023-05-16T14:51:27.290Z,23.33
2023-05-16T14:53:56.067Z,23.27
2023-05-16T14:56:23.610Z,23.20
2023-05-16T14:58:51.385Z,23.18
2023-05-16T15:01:19.018Z,23.14
2023-05-16T15:03:55.550Z,23.12
2023-05-16T15:06:24.873Z,23.11
2023-05-16T15:08:54.068Z,23.09
2023-05-16T15:11:21.895Z,23.05
2023-05-16T15:13:49.520Z,23.00
2023-05-16T15:16:17.113Z,22.96
2023-05-16T15:18:44.904Z,22.95
2023-05-16T15:21:12.658Z,22.91
2023-05-16T15:23:40.302Z,22.90
2023-05-16T15:26:07.841Z,22.90
2023-05-16T15:28:35.850Z,22.90
2023-05-16T15:31:04.813Z,22.89
2023-05-16T15:33:33.245Z,22.88
2023-05-16T15:36:01.709Z,22.88
2023-05-16T15:38:30.681Z,22.86
2023-05-16T15:41:14.203Z,22.83
2023-05-16T15:43:46.353Z,22.79
2023-05-16T15:46:14.097Z,22.77
2023-05-16T15:48:44.684Z,22.74
2023-05-16T15:51:13.155Z,22.72
2023-05-16T15:53:40.768Z,22.68
2023-05-16T15:56:08.866Z,22.67
2023-05-16T15:58:36.590Z,22.65
2023-05-16T16:01:04.196Z,22.62
2023-05-16T16:03:32.479Z,22.61
2023-05-16T16:06:00.108Z,22.60
2023-05-16T16:08:28.071Z,22.59
2023-05-16T16:10:57.141Z,22.59
2023-05-16T16:13:25.349Z,22.57
2023-05-16T16:15:52.948Z,22.53
2023-05-16T16:18:20.473Z,22.47
2023-05-16T16:20:48.100Z,22.43
2023-05-16T16:23:15.930Z,22.42
2023-05-16T16:25:43.446Z,22.40
2023-05-16T16:28:11.121Z,22.38
2023-05-16T16:30:39.413Z,22.36
2023-05-16T16:33:07.351Z,22.33
2023-05-16T16:35:34.996Z,22.30
2023-05-16T16:38:07.130Z,22.22
2023-05-16T16:40:35.394Z,22.21
2023-05-16T16:43:04.444Z,22.21
2023-05-16T16:45:32.076Z,22.19
2023-05-16T16:47:59.757Z,22.15
2023-05-16T16:50:27.563Z,22.12
2023-05-16T16:52:55.261Z,22.11
2023-05-16T16:55:22.810Z,22.10
2023-05-16T16:57:50.540Z,22.08
2023-05-16T17:00:18.496Z,22.08
2023-05-16T17:02:46.222Z,22.05
2023-05-16T17:05:13.959Z,22.03
2023-05-16T17:07:42.693Z,22.01
2023-05-16T17:10:10.532Z,21.99
2023-05-16T17:12:46.189Z,21.96
2023-05-16T17:15:13.864Z,21.94
2023-05-16T17:17:42.167Z,21.89
2023-05-16T17:20:12.709Z,21.85
2023-05-16T17:22:40.822Z,21.79
2023-05-16T17:25:09.958Z,21.75
2023-05-16T17:27:37.801Z,21.73
2023-05-16T17:30:06.479Z,21.71
2023-05-16T17:32:34.339Z,21.69
2023-05-16T17:35:04.217Z,21.69
2023-05-16T17:37:32.469Z,21.68
2023-05-16T17:40:00.050Z,21.68
2023-05-16T17:42:27.893Z,21.67
2023-05-16T17:44:55.474Z,21.65
2023-05-16T17:47:23.400Z,21.64
2023-05-16T17:49:51.050Z,21.62
2023-05-16T17:52:20.296Z,21.60
2023-05-16T17:54:49.078Z,21.57
2023-05-16T17:57:16.626Z,21.56
2023-05-16T17:59:44.434Z,21.55
2023-05-16T18:02:15.398Z,21.51
2023-05-16T18:04:43.354Z,21.48
2023-05-16T18:07:11.010Z,21.45
2023-05-16T18:09:38.816Z,21.42
2023-05-16T18:12:07.106Z,21.38
2023-05-16T18:14:35.621Z,21.37
2023-05-16T18:17:03.804Z,21.36
2023-05-16T18:19:31.809Z,21.34
2023-05-16T18:22:00.111Z,21.31
2023-05-16T18:24:27.921Z,21.29
2023-05-16T18:26:56.298Z,21.28
2023-05-16T18:29:23.883Z,21.26
2023-05-16T18:31:51.609Z,21.24
2023-05-16T18:34:19.323Z,21.20
2023-05-16T18:36:48.618Z,21.18
2023-05-16T18:39:17.931Z,21.15
2023-05-16T18:41:46.833Z,21.13
2023-05-16T18:44:17.255Z,21.12
2023-05-16T18:46:46.128Z,21.09
2023-05-16T18:49:14.053Z,21.10
2023-05-16T18:51:41.670Z,21.09
2023-05-16T18:54:09.196Z,21.05
2023-05-16T18:56:37.203Z,21.04
2023-05-16T18:59:04.873Z,21.03
2023-05-16T19:01:32.805Z,21.01
2023-05-16T19:04:00.708Z,20.98
2023-05-16T19:06:28.536Z,20.98
2023-05-16T19:08:56.164Z,20.97
2023-05-16T19:11:24.137Z,20.97
2023-05-16T19:13:51.755Z,20.92
2023-05-16T19:16:19.398Z,20.92
2023-05-16T19:18:47.251Z,20.91
2023-05-16T19:21:15.950Z,20.91
2023-05-16T19:23:45.317Z,20.89
2023-05-16T19:26:12.935Z,20.88
2023-05-16T19:28:42.045Z,20.84
2023-05-16T19:31:12.969Z,20.86
2023-05-16T19:33:43.128Z,20.83
2023-05-16T19:36:10.701Z,20.84
2023-05-16T19:38:38.607Z,20.85
2023-05-16T19:41:06.137Z,20.83
2023-05-16T19:43:34.915Z,20.81
2023-05-16T19:46:02.563Z,20.80
2023-05-16T19:48:30.285Z,20.77
2023-05-16T19:50:58.032Z,20.76
2023-05-16T19:53:25.890Z,20.76
2023-05-16T19:55:53.959Z,20.75
2023-05-16T19:58:21.734Z,20.73
2023-05-16T20:00:50.966Z,20.72
2023-05-16T20:03:19.239Z,20.69
2023-05-16T20:05:46.988Z,20.68
2023-05-16T20:08:14.657Z,20.65
2023-05-16T20:10:42.392Z,20.65
2023-05-16T20:13:10.662Z,20.62
2023-05-16T20:15:38.252Z,20.60
2023-05-16T20:18:06.468Z,20.58
2023-05-16T20:20:34.169Z,20.58
2023-05-16T20:23:01.681Z,20.57
2023-05-16T20:25:30.374Z,20.57
2023-05-16T20:27:59.054Z,20.57
2023-05-16T20:30:26.824Z,20.56
2023-05-16T20:32:54.638Z,20.56
2023-05-16T20:35:22.259Z,20.55
2023-05-16T20:37:50.050Z,20.53
2023-05-16T20:40:17.925Z,20.52
2023-05-16T20:42:45.822Z,20.50
2023-05-16T20:45:13.400Z,20.49
2023-05-16T20:47:42.569Z,20.45
2023-05-16T20:50:10.711Z,20.45
2023-05-16T20:52:38.436Z,20.42
2023-05-16T20:55:06.509Z,20.40
2023-05-16T20:57:34.365Z,20.39
2023-05-16T21:00:01.930Z,20.36
2023-05-16T21:02:30.346Z,20.33
2023-05-16T21:04:59.582Z,20.32
2023-05-16T21:07:33.710Z,20.30
2023-05-16T21:10:01.245Z,20.29
2023-05-16T21:12:29.042Z,20.26
2023-05-16T21:14:57.010Z,20.23
2023-05-16T21:17:24.531Z,20.19
2023-05-16T21:19:52.274Z,20.13
2023-05-16T21:22:20.034Z,20.11
2023-05-16T21:24:47.582Z,20.10
2023-05-16T21:27:15.277Z,20.08
2023-05-16T21:29:42.721Z,20.05
2023-05-16T21:32:10.385Z,20.01
2023-05-16T21:34:37.949Z,19.97
2023-05-16T21:37:07.358Z,19.93
2023-05-16T21:39:36.001Z,19.92
2023-05-16T21:42:04.075Z,19.90
2023-05-16T21:44:31.821Z,19.85
2023-05-16T21:46:59.574Z,19.81
2023-05-16T21:49:27.178Z,19.78
2023-05-16T21:51:54.778Z,19.76
2023-05-16T21:54:22.359Z,19.73
2023-05-16T21:56:49.943Z,19.72
2023-05-16T21:59:17.521Z,19.71
2023-05-16T22:01:45.326Z,19.71
2023-05-16T22:04:12.985Z,19.69
2023-05-16T22:06:40.771Z,19.69
2023-05-16T22:09:08.864Z,19.70
2023-05-16T22:11:36.412Z,19.71
2023-05-16T22:14:04.243Z,19.72
2023-05-16T22:16:32.104Z,19.72
2023-05-16T22:18:59.844Z,19.72
2023-05-16T22:21:27.616Z,19.73
2023-05-16T22:23:55.206Z,19.71
2023-05-16T22:26:22.798Z,19.70
2023-05-16T22:28:50.355Z,19.68
2023-05-16T22:31:18.135Z,19.70
2023-05-16T22:33:46.000Z,19.68
2023-05-16T22:36:13.598Z,19.68
2023-05-16T22:38:41.347Z,19.71
2023-05-16T22:41:09.056Z,19.70
2023-05-16T22:43:36.917Z,19.69
2023-05-16T22:46:04.631Z,19.71
2023-05-16T22:48:32.679Z,19.69
2023-05-16T22:51:00.959Z,19.71
2023-05-16T22:53:29.131Z,19.73
2023-05-16T22:55:56.735Z,19.73
2023-05-16T22:58:24.304Z,19.73
2023-05-16T23:00:52.164Z,19.73
2023-05-16T23:03:19.846Z,19.72
2023-05-16T23:05:47.522Z,19.73
2023-05-16T23:08:15.063Z,19.74
2023-05-16T23:10:42.589Z,19.73
2023-05-16T23:13:10.265Z,19.74
2023-05-16T23:15:38.054Z,19.74
2023-05-16T23:18:08.409Z,19.75
2023-05-16T23:20:36.302Z,19.73
2023-05-16T23:23:04.092Z,19.73
2023-05-16T23:25:31.772Z,19.72
2023-05-16T23:27:59.560Z,19.72
2023-05-16T23:30:27.101Z,19.72
2023-05-16T23:32:55.005Z,19.70
2023-05-16T23:35:22.870Z,19.70
2023-05-16T23:37:50.373Z,19.68
2023-05-16T23:40:18.139Z,19.67
2023-05-16T23:42:45.708Z,19.66
2023-05-16T23:45:13.312Z,19.66
2023-05-16T23:47:41.189Z,19.66
2023-05-16T23:50:09.644Z,19.65
2023-05-16T23:52:37.385Z,19.64
2023-05-16T23:55:05.591Z,19.64
2023-05-16T23:57:33.700Z,19.62
